MDT,Max TemperatureF,Mean TemperatureF,Min TemperatureF,Max Dew PointF,MeanDew PointF,Min DewpointF,Max Humidity, Mean Humidity, Min Humidity, Max Sea Level PressureIn, Mean Sea Level PressureIn, Min Sea Level PressureIn, Max VisibilityMiles, Mean VisibilityMiles, Min VisibilityMiles, Max Wind SpeedMPH, Mean Wind SpeedMPH, Max Gust SpeedMPH,PrecipitationIn, CloudCover, Events, WindDirDegrees
2012-4-1,72,56,39,25,14,8,51,30,9,29.71,29.39,29.24,10,10,8,30,17,37,0.00,1,,227
2012-4-2,39,34,29,30,26,23,92,73,54,30.19,29.88,29.42,10,8,2,26,14,31,0.02,8,Snow,5
2012-4-3,39,32,25,27,22,16,92,75,58,30.23,30.15,30.05,10,9,2,21,7,23,T,7,Snow,96
2012-4-4,63,43,22,32,27,20,96,60,23,30.06,29.84,29.69,10,10,10,25,11,33,0.00,0,,167
2012-4-5,66,47,27,39,24,7,89,50,11,29.86,29.70,29.61,10,10,10,32,14,41,0.00,1,,167
2012-4-6,60,41,21,38,16,-8,92,49,6,30.03,29.66,29.44,10,10,10,51,24,62,0.00,0,,219
2012-4-7,52,33,13,8,0,-6,61,35,9,30.33,30.25,30.10,10,10,10,35,14,44,0.00,0,,242
2012-4-8,63,45,27,11,0,-5,36,21,6,30.24,30.13,30.04,10,10,10,23,13,32,0.00,0,,246
2012-4-9,67,45,23,30,10,0,62,35,7,30.13,30.04,29.96,10,10,10,26,12,37,0.00,0,,193
2012-4-10,69,47,24,42,22,9,86,48,10,30.17,29.96,29.84,10,10,10,23,9,29,0.00,0,,141
2012-4-11,68,55,41,45,41,37,100,69,37,30.10,29.82,29.56,10,9,2,38,23,46,0.02,4,Rain,159
2012-4-12,54,44,33,41,28,22,96,64,32,29.86,29.64,29.57,10,10,10,43,17,48,T,2,Rain,246
2012-4-13,51,41,31,32,24,9,75,47,19,29.83,29.73,29.62,10,7,0,33,11,38,0.04,6,Fog-Snow,288
2012-4-14,46,38,30,34,30,23,100,73,45,29.79,29.62,29.47,10,6,0,26,9,31,0.03,7,Fog-Rain-Snow,353
2012-4-15,41,34,27,34,28,25,92,81,70,29.97,29.75,29.50,10,7,0,37,17,46,0.05,8,Fog-Snow,330
2012-4-16,50,37,23,28,24,17,92,61,29,30.13,30.03,29.95,10,6,0,29,13,39,T,5,Fog-Snow,242
2012-4-17,56,42,28,30,24,20,75,51,27,30.06,30.02,29.96,10,10,10,30,14,37,0.00,2,,254
2012-4-18,58,44,29,38,30,23,92,60,27,30.04,29.91,29.79,10,10,5,31,12,37,0.07,5,Rain,240
2012-4-19,52,41,29,34,27,21,89,61,32,30.04,29.90,29.81,10,10,10,35,14,45,T,4,Rain,286
2012-4-20,61,42,23,31,27,21,100,65,29,30.16,30.04,29.92,10,10,2,31,14,46,T,2,,262
2012-4-21,68,52,35,33,26,17,70,43,15,30.20,29.99,29.92,10,10,10,32,15,38,0.00,0,,320
2012-4-22,71,51,30,32,27,16,85,49,13,30.15,30.09,30.04,10,10,10,22,12,32,0.00,0,,179
2012-4-23,75,54,32,30,25,20,76,45,13,30.08,29.98,29.86,10,10,10,20,7,30,0.00,1,,234
2012-4-24,77,56,35,31,26,21,64,39,13,30.03,29.80,29.71,10,10,10,33,12,46,T,1,Rain,231
2012-4-25,70,53,35,41,30,25,71,45,19,30.09,29.84,29.72,10,10,10,25,9,31,T,3,,229
2012-4-26,70,56,42,45,38,26,93,57,21,29.86,29.73,29.52,10,10,4,41,10,53,0.16,4,Rain-Thunderstorm,221
2012-4-27,49,39,28,45,29,12,100,66,31,29.87,29.68,29.44,10,9,2,43,24,61,0.15,5,Rain,262
2012-4-28,51,38,24,20,13,9,60,39,18,29.97,29.90,29.83,10,10,10,31,15,40,0.00,2,,261
2012-4-29,55,37,19,26,18,15,96,59,22,30.03,29.94,29.89,10,10,10,24,11,35,0.00,3,,248
2012-4-30,66,46,26,20,17,11,69,41,12,29.97,29.78,29.57,10,10,10,30,15,43,0.00,0,,235